sensor_id;sensor_type;location;lat;lon;timestamp;pressure;altitude;pressure_sealevel;temperature;humidity
40872;BME280;26591;43.264;26.940;2023-12-07T00:00:48;98677.91;;;6.65;96.19
40872;BME280;26591;43.264;26.940;2023-12-07T00:03:13;98677.91;;;6.65;96.25
40872;BME280;26591;43.264;26.940;2023-12-07T00:05:40;98676.81;;;6.67;96.46
40872;BME280;26591;43.264;26.940;2023-12-07T00:08:09;98675.44;;;6.63;96.10
40872;BME280;26591;43.264;26.940;2023-12-07T00:10:35;98678.22;;;6.62;95.94
40872;BME280;26591;43.264;26.940;2023-12-07T00:13:01;98678.66;;;6.57;96.01
40872;BME280;26591;43.264;26.940;2023-12-07T00:15:27;98680.53;;;6.65;95.92
40872;BME280;26591;43.264;26.940;2023-12-07T00:17:53;98674.28;;;6.48;95.98
40872;BME280;26591;43.264;26.940;2023-12-07T00:20:19;98677.97;;;6.55;96.49
40872;BME280;26591;43.264;26.940;2023-12-07T00:22:44;98673.91;;;6.43;96.50
40872;BME280;26591;43.264;26.940;2023-12-07T00:25:10;98686.13;;;6.34;96.05
40872;BME280;26591;43.264;26.940;2023-12-07T00:27:35;98683.59;;;6.24;96.29
40872;BME280;26591;43.264;26.940;2023-12-07T00:30:01;98684.34;;;6.34;96.30
40872;BME280;26591;43.264;26.940;2023-12-07T00:32:26;98686.34;;;6.22;96.59
40872;BME280;26591;43.264;26.940;2023-12-07T00:34:52;98685.34;;;6.05;96.46
40872;BME280;26591;43.264;26.940;2023-12-07T00:37:18;98690.44;;;6.07;96.49
40872;BME280;26591;43.264;26.940;2023-12-07T00:39:43;98696.03;;;5.84;96.84
40872;BME280;26591;43.264;26.940;2023-12-07T00:42:09;98695.97;;;6.04;96.29
40872;BME280;26591;43.264;26.940;2023-12-07T00:44:39;98695.31;;;5.92;96.54
40872;BME280;26591;43.264;26.940;2023-12-07T00:47:04;98691.16;;;5.89;96.87
40872;BME280;26591;43.264;26.940;2023-12-07T00:49:30;98697.94;;;5.92;96.58
40872;BME280;26591;43.264;26.940;2023-12-07T00:51:55;98703.72;;;5.95;96.94
40872;BME280;26591;43.264;26.940;2023-12-07T00:54:21;98706.34;;;6.05;95.78
40872;BME280;26591;43.264;26.940;2023-12-07T00:56:46;98709.41;;;6.01;96.73
40872;BME280;26591;43.264;26.940;2023-12-07T00:59:12;98711.19;;;6.00;95.44
40872;BME280;26591;43.264;26.940;2023-12-07T01:01:37;98702.88;;;6.05;95.90
40872;BME280;26591;43.264;26.940;2023-12-07T01:04:04;98699.41;;;6.14;95.18
40872;BME280;26591;43.264;26.940;2023-12-07T01:06:31;98704.41;;;6.07;95.77
40872;BME280;26591;43.264;26.940;2023-12-07T01:08:57;98700.81;;;5.99;94.98
40872;BME280;26591;43.264;26.940;2023-12-07T01:11:22;98701.81;;;5.88;95.93
40872;BME280;26591;43.264;26.940;2023-12-07T01:13:48;98696.16;;;5.83;95.67
40872;BME280;26591;43.264;26.940;2023-12-07T01:16:13;98689.16;;;5.73;95.83
40872;BME280;26591;43.264;26.940;2023-12-07T01:18:39;98689.00;;;5.75;95.65
40872;BME280;26591;43.264;26.940;2023-12-07T01:21:04;98685.38;;;5.86;95.65
40872;BME280;26591;43.264;26.940;2023-12-07T01:23:31;98687.41;;;5.64;96.02
40872;BME280;26591;43.264;26.940;2023-12-07T01:25:57;98693.59;;;5.73;96.00
40872;BME280;26591;43.264;26.940;2023-12-07T01:28:22;98680.56;;;5.81;95.61
40872;BME280;26591;43.264;26.940;2023-12-07T01:30:48;98678.81;;;5.72;95.41
40872;BME280;26591;43.264;26.940;2023-12-07T01:33:13;98682.19;;;5.54;96.11
40872;BME280;26591;43.264;26.940;2023-12-07T01:35:39;98681.75;;;5.59;96.40
40872;BME280;26591;43.264;26.940;2023-12-07T01:38:04;98682.28;;;5.62;96.14
40872;BME280;26591;43.264;26.940;2023-12-07T01:40:30;98688.63;;;5.70;95.94
40872;BME280;26591;43.264;26.940;2023-12-07T01:42:55;98687.66;;;5.71;96.10
40872;BME280;26591;43.264;26.940;2023-12-07T01:45:21;98691.50;;;5.76;96.06
40872;BME280;26591;43.264;26.940;2023-12-07T01:47:49;98694.81;;;5.78;95.22
40872;BME280;26591;43.264;26.940;2023-12-07T01:50:15;98692.53;;;5.56;95.87
40872;BME280;26591;43.264;26.940;2023-12-07T01:52:46;98691.13;;;5.52;95.51
40872;BME280;26591;43.264;26.940;2023-12-07T01:55:13;98691.72;;;5.45;95.49
40872;BME280;26591;43.264;26.940;2023-12-07T01:57:41;98696.25;;;5.53;95.21
40872;BME280;26591;43.264;26.940;2023-12-07T02:00:09;98696.97;;;5.55;95.26
40872;BME280;26591;43.264;26.940;2023-12-07T02:02:35;98700.97;;;5.49;95.49
40872;BME280;26591;43.264;26.940;2023-12-07T02:05:02;98688.50;;;5.52;95.10
40872;BME280;26591;43.264;26.940;2023-12-07T02:07:32;98692.53;;;5.46;95.75
40872;BME280;26591;43.264;26.940;2023-12-07T02:09:59;98698.63;;;5.56;94.99
40872;BME280;26591;43.264;26.940;2023-12-07T02:12:25;98703.03;;;5.56;94.64
40872;BME280;26591;43.264;26.940;2023-12-07T02:14:52;98690.75;;;5.46;94.97
40872;BME280;26591;43.264;26.940;2023-12-07T02:17:28;98692.00;;;5.32;95.16
40872;BME280;26591;43.264;26.940;2023-12-07T02:20:03;98701.69;;;5.42;95.07
40872;BME280;26591;43.264;26.940;2023-12-07T02:22:38;98685.94;;;5.42;95.70
40872;BME280;26591;43.264;26.940;2023-12-07T02:27:44;98686.31;;;5.47;95.77
40872;BME280;26591;43.264;26.940;2023-12-07T02:30:14;98689.59;;;5.69;94.54
40872;BME280;26591;43.264;26.940;2023-12-07T02:32:41;98690.75;;;5.46;95.07
40872;BME280;26591;43.264;26.940;2023-12-07T02:35:08;98689.09;;;5.45;95.28
40872;BME280;26591;43.264;26.940;2023-12-07T02:37:53;98693.03;;;5.69;94.65
40872;BME280;26591;43.264;26.940;2023-12-07T02:40:25;98688.88;;;5.76;95.24
40872;BME280;26591;43.264;26.940;2023-12-07T02:42:52;98694.75;;;5.50;95.12
40872;BME280;26591;43.264;26.940;2023-12-07T02:45:18;98694.00;;;5.68;94.49
40872;BME280;26591;43.264;26.940;2023-12-07T02:47:44;98684.63;;;5.65;94.48
40872;BME280;26591;43.264;26.940;2023-12-07T02:50:11;98688.94;;;5.47;95.18
40872;BME280;26591;43.264;26.940;2023-12-07T02:52:37;98693.19;;;5.68;94.91
40872;BME280;26591;43.264;26.940;2023-12-07T02:55:03;98689.78;;;5.57;94.92
40872;BME280;26591;43.264;26.940;2023-12-07T02:57:29;98693.91;;;5.60;94.79
40872;BME280;26591;43.264;26.940;2023-12-07T02:59:56;98693.47;;;5.64;94.22
40872;BME280;26591;43.264;26.940;2023-12-07T03:02:22;98688.94;;;5.47;94.70
40872;BME280;26591;43.264;26.940;2023-12-07T03:04:47;98698.19;;;5.51;94.30
40872;BME280;26591;43.264;26.940;2023-12-07T03:07:13;98703.44;;;5.61;94.63
40872;BME280;26591;43.264;26.940;2023-12-07T03:09:38;98701.78;;;5.60;94.64
40872;BME280;26591;43.264;26.940;2023-12-07T03:12:06;98707.59;;;5.54;94.16
40872;BME280;26591;43.264;26.940;2023-12-07T03:14:32;98701.78;;;5.60;94.36
40872;BME280;26591;43.264;26.940;2023-12-07T03:16:58;98702.19;;;5.65;94.62
40872;BME280;26591;43.264;26.940;2023-12-07T03:19:23;98708.94;;;5.68;93.72
40872;BME280;26591;43.264;26.940;2023-12-07T03:21:49;98703.94;;;5.74;93.59
40872;BME280;26591;43.264;26.940;2023-12-07T03:24:14;98701.34;;;5.64;94.31
40872;BME280;26591;43.264;26.940;2023-12-07T03:26:40;98707.06;;;5.40;94.62
40872;BME280;26591;43.264;26.940;2023-12-07T03:29:08;98710.63;;;5.59;94.13
40872;BME280;26591;43.264;26.940;2023-12-07T03:31:33;98703.88;;;5.46;94.54
40872;BME280;26591;43.264;26.940;2023-12-07T03:33:59;98711.19;;;5.53;94.94
40872;BME280;26591;43.264;26.940;2023-12-07T03:36:26;98710.53;;;5.41;94.99
40872;BME280;26591;43.264;26.940;2023-12-07T03:38:52;98710.78;;;5.47;95.07
40872;BME280;26591;43.264;26.940;2023-12-07T03:41:18;98720.13;;;5.70;94.55
40872;BME280;26591;43.264;26.940;2023-12-07T03:43:43;98727.06;;;5.61;95.07
40872;BME280;26591;43.264;26.940;2023-12-07T03:46:09;98722.06;;;5.68;93.98
40872;BME280;26591;43.264;26.940;2023-12-07T03:48:35;98729.06;;;5.77;93.54
40872;BME280;26591;43.264;26.940;2023-12-07T03:51:00;98730.47;;;5.71;94.20
40872;BME280;26591;43.264;26.940;2023-12-07T03:53:27;98729.59;;;5.43;94.26
40872;BME280;26591;43.264;26.940;2023-12-07T03:55:55;98730.94;;;5.57;94.30
40872;BME280;26591;43.264;26.940;2023-12-07T03:58:20;98731.34;;;5.62;94.78
40872;BME280;26591;43.264;26.940;2023-12-07T04:00:46;98736.34;;;5.55;94.55
40872;BME280;26591;43.264;26.940;2023-12-07T04:03:12;98737.41;;;5.62;94.29
40872;BME280;26591;43.264;26.940;2023-12-07T04:05:38;98737.66;;;5.79;93.94
40872;BME280;26591;43.264;26.940;2023-12-07T04:08:04;98734.50;;;5.65;93.74
40872;BME280;26591;43.264;26.940;2023-12-07T04:10:32;98741.31;;;5.48;94.00
40872;BME280;26591;43.264;26.940;2023-12-07T04:12:58;98738.22;;;5.73;93.90
40872;BME280;26591;43.264;26.940;2023-12-07T04:15:24;98735.72;;;5.71;94.23
40872;BME280;26591;43.264;26.940;2023-12-07T04:17:51;98744.16;;;5.75;93.63
40872;BME280;26591;43.264;26.940;2023-12-07T04:20:18;98740.72;;;5.64;93.96
40872;BME280;26591;43.264;26.940;2023-12-07T04:22:44;98745.41;;;5.71;93.43
40872;BME280;26591;43.264;26.940;2023-12-07T04:25:10;98739.03;;;5.73;93.58
40872;BME280;26591;43.264;26.940;2023-12-07T04:27:36;98750.78;;;5.79;93.60
40872;BME280;26591;43.264;26.940;2023-12-07T04:30:01;98752.75;;;6.15;94.87
40872;BME280;26591;43.264;26.940;2023-12-07T04:32:27;98760.00;;;6.03;95.39
40872;BME280;26591;43.264;26.940;2023-12-07T04:34:52;98754.88;;;6.39;95.45
40872;BME280;26591;43.264;26.940;2023-12-07T04:37:18;98753.69;;;6.23;94.09
40872;BME280;26591;43.264;26.940;2023-12-07T04:39:44;98754.00;;;6.10;92.73
40872;BME280;26591;43.264;26.940;2023-12-07T04:42:09;98759.16;;;5.92;92.26
40872;BME280;26591;43.264;26.940;2023-12-07T04:44:35;98757.13;;;5.86;91.82
40872;BME280;26591;43.264;26.940;2023-12-07T04:47:00;98759.16;;;5.92;91.58
40872;BME280;26591;43.264;26.940;2023-12-07T04:49:26;98766.78;;;5.86;92.17
40872;BME280;26591;43.264;26.940;2023-12-07T04:51:52;98760.75;;;5.75;91.99
40872;BME280;26591;43.264;26.940;2023-12-07T04:54:17;98763.91;;;5.79;92.10
40872;BME280;26591;43.264;26.940;2023-12-07T04:56:43;98763.56;;;5.54;92.41
40872;BME280;26591;43.264;26.940;2023-12-07T04:59:11;98761.47;;;5.38;92.66
40872;BME280;26591;43.264;26.940;2023-12-07T05:01:36;98760.50;;;5.49;92.67
40872;BME280;26591;43.264;26.940;2023-12-07T05:04:03;98753.34;;;5.31;93.00
40872;BME280;26591;43.264;26.940;2023-12-07T05:06:32;98764.50;;;5.53;92.62
40872;BME280;26591;43.264;26.940;2023-12-07T05:08:57;98764.53;;;5.33;93.52
40872;BME280;26591;43.264;26.940;2023-12-07T05:11:23;98767.31;;;5.32;93.53
40872;BME280;26591;43.264;26.940;2023-12-07T05:13:49;98767.84;;;5.35;93.66
40872;BME280;26591;43.264;26.940;2023-12-07T05:16:15;98767.69;;;5.37;93.84
40872;BME280;26591;43.264;26.940;2023-12-07T05:18:40;98779.16;;;5.46;93.12
40872;BME280;26591;43.264;26.940;2023-12-07T05:21:07;98773.34;;;5.62;93.50
40872;BME280;26591;43.264;26.940;2023-12-07T05:23:33;98779.47;;;5.43;93.60
40872;BME280;26591;43.264;26.940;2023-12-07T05:25:59;98782.81;;;5.83;94.55
40872;BME280;26591;43.264;26.940;2023-12-07T05:28:25;98778.97;;;5.77;93.41
40872;BME280;26591;43.264;26.940;2023-12-07T05:30:51;98776.53;;;5.56;93.42
40872;BME280;26591;43.264;26.940;2023-12-07T05:33:17;98779.56;;;5.41;93.57
40872;BME280;26591;43.264;26.940;2023-12-07T05:35:44;98779.69;;;5.69;92.80
40872;BME280;26591;43.264;26.940;2023-12-07T05:38:10;98788.97;;;5.54;93.42
40872;BME280;26591;43.264;26.940;2023-12-07T05:40:35;98794.84;;;5.95;93.53
40872;BME280;26591;43.264;26.940;2023-12-07T06:30:45;98835.78;;;5.19;94.76
40872;BME280;26591;43.264;26.940;2023-12-07T07:30:21;98871.16;;;4.12;93.88
40872;BME280;26591;43.264;26.940;2023-12-07T09:03:13;98924.00;;;3.96;91.10
40872;BME280;26591;43.264;26.940;2023-12-07T09:40:39;98898.56;;;4.08;90.26
40872;BME280;26591;43.264;26.940;2023-12-07T10:09:22;98898.88;;;3.93;91.37
40872;BME280;26591;43.264;26.940;2023-12-07T13:39:39;98935.06;;;3.67;86.53
40872;BME280;26591;43.264;26.940;2023-12-07T14:22:35;98951.19;;;3.72;85.11
40872;BME280;26591;43.264;26.940;2023-12-07T14:25:01;98960.38;;;3.66;85.36
40872;BME280;26591;43.264;26.940;2023-12-07T14:47:27;98970.25;;;3.08;86.93
40872;BME280;26591;43.264;26.940;2023-12-07T18:08:56;99086.25;;;2.00;90.91
40872;BME280;26591;43.264;26.940;2023-12-07T19:41:13;99084.16;;;1.55;85.22
40872;BME280;26591;43.264;26.940;2023-12-07T20:05:42;99110.69;;;1.35;86.21
40872;BME280;26591;43.264;26.940;2023-12-07T20:31:10;99104.13;;;1.43;85.05
40872;BME280;26591;43.264;26.940;2023-12-07T21:21:43;99135.31;;;1.31;85.01
40872;BME280;26591;43.264;26.940;2023-12-07T21:50:39;99114.94;;;0.85;84.91
40872;BME280;26591;43.264;26.940;2023-12-07T23:13:49;99130.66;;;0.70;86.55
40872;BME280;26591;43.264;26.940;2023-12-07T23:35:36;99128.50;;;0.37;88.46
